Time;durP1;ratioP1;P1;durP2;ratioP2;P2;SDS_P1;SDS_P2;PMS_P1;PMS_P2;Temp;Humidity;BMP_temperature;BMP_pressure;BME280_temperature;BME280_humidity;BME280_pressure;Samples;Min_cycle;Max_cycle;Signal;HPM_P1;HPM_P2
2022/08/06 00:02:26;;;;;;;2.10;0.20;;;;;;;18.65;48.45;102275.63;7383491;19;20026;-62
2022/08/06 00:05:01;;;;;;;1.85;0.30;;;;;;;18.62;48.41;102286.66;7377170;19;20033;-62
2022/08/06 00:07:30;;;;;;;2.50;0.40;;;;;;;18.58;48.80;102282.66;7384166;19;20028;-63
2022/08/06 00:10:17;;;;;;;1.00;0.30;;;;;;;18.55;48.65;102285.66;7377053;19;20580;-64
2022/08/06 00:12:45;;;;;;;2.75;0.30;;;;;;;18.52;49.05;102291.28;7382199;19;20018;-62
2022/08/06 00:15:17;;;;;;;3.40;0.32;;;;;;;18.51;49.32;102281.63;7381453;19;20019;-63
2022/08/06 00:18:06;;;;;;;3.30;0.40;;;;;;;18.47;49.24;102290.97;7382215;19;20775;-63
2022/08/06 00:20:34;;;;;;;2.05;0.38;;;;;;;18.47;49.65;102290.13;7380479;19;20010;-64
2022/08/06 00:23:10;;;;;;;3.60;0.45;;;;;;;18.45;49.43;102292.13;7381152;19;20026;-62
2022/08/06 00:25:45;;;;;;;1.70;0.30;;;;;;;18.44;49.49;102293.16;7380109;19;20014;-62
2022/08/06 00:28:24;;;;;;;1.58;0.45;;;;;;;18.45;49.61;102300.13;7379440;19;20054;-65
2022/08/06 00:31:02;;;;;;;3.22;0.50;;;;;;;18.37;49.96;102300.97;7382548;19;20033;-63
2022/08/06 00:33:41;;;;;;;2.03;0.40;;;;;;;18.34;49.86;102301.28;7379979;19;20019;-63
2022/08/06 00:36:25;;;;;;;1.75;0.68;;;;;;;18.34;50.68;102301.28;7380717;19;20051;-63
2022/08/06 00:38:58;;;;;;;3.05;0.57;;;;;;;18.34;50.10;102301.28;7378920;19;20011;-64
2022/08/06 00:41:36;;;;;;;1.50;0.60;;;;;;;18.28;50.23;102302.81;7382716;19;20018;-63
2022/08/06 00:44:13;;;;;;;2.70;0.50;;;;;;;18.26;50.01;102307.47;7379031;19;20023;-62
2022/08/06 00:46:57;;;;;;;2.17;0.60;;;;;;;18.23;50.25;102296.31;7380893;19;20014;-61
2022/08/06 00:49:25;;;;;;;3.00;1.02;;;;;;;18.21;50.49;102296.47;7379754;19;20015;-61
2022/08/06 00:52:14;;;;;;;2.42;0.70;;;;;;;18.17;50.70;102302.31;7381488;19;20020;-66
2022/08/06 00:54:45;;;;;;;4.07;0.90;;;;;;;18.14;50.59;102298.13;7379717;19;20107;-66
2022/08/06 00:57:19;;;;;;;3.88;0.80;;;;;;;18.11;50.87;102300.28;7378895;19;20019;-66
2022/08/06 00:59:58;;;;;;;3.75;0.80;;;;;;;18.08;50.57;102296.13;7379227;19;20025;-65
2022/08/06 01:02:27;;;;;;;2.20;0.70;;;;;;;18.07;50.98;102315.78;7380456;19;20018;-65
2022/08/06 01:04:55;;;;;;;4.60;1.00;;;;;;;18.05;51.23;102309.78;7378310;19;20014;-65
2022/08/06 01:07:33;;;;;;;4.38;1.02;;;;;;;18.01;51.18;102316.44;7379177;19;20018;-65
2022/08/06 01:10:23;;;;;;;4.53;0.98;;;;;;;17.90;51.55;102322.91;7386552;19;20030;-66
2022/08/06 01:13:14;;;;;;;4.13;0.98;;;;;;;17.85;51.93;102321.75;7387921;19;20018;-66
2022/08/06 01:16:12;;;;;;;4.95;1.17;;;;;;;17.80;51.96;102310.75;7386090;19;20470;-66
2022/08/06 01:19:17;;;;;;;3.90;1.25;;;;;;;17.75;51.95;102326.38;7384259;19;20042;-64
2022/08/06 01:22:32;;;;;;;2.90;1.30;;;;;;;17.68;52.36;102318.19;7389311;19;20014;-65
2022/08/06 01:25:13;;;;;;;3.38;0.90;;;;;;;17.65;52.58;102315.88;7386361;19;20550;-65
2022/08/06 01:27:53;;;;;;;3.13;1.15;;;;;;;17.61;52.54;102319.84;7387734;19;20358;-65
2022/08/06 01:30:38;;;;;;;5.18;1.92;;;;;;;17.52;52.65;102318.94;7386284;19;20010;-65
2022/08/06 01:33:20;;;;;;;5.40;1.10;;;;;;;17.43;53.05;102325.25;7388809;19;20036;-66
2022/08/06 01:36:00;;;;;;;3.78;1.23;;;;;;;17.40;53.16;102328.22;7386445;19;20017;-62
2022/08/06 01:38:45;;;;;;;3.78;1.42;;;;;;;17.41;54.67;102329.06;7387131;19;20143;-65
2022/08/06 01:41:38;;;;;;;5.15;1.63;;;;;;;17.39;53.72;102325.72;7389209;19;20430;-65
2022/08/06 01:44:33;;;;;;;3.75;1.38;;;;;;;17.40;53.63;102324.72;7385968;19;20074;-65
2022/08/06 01:47:12;;;;;;;4.28;1.33;;;;;;;17.37;53.53;102325.06;7385615;19;20109;-66
2022/08/06 01:49:50;;;;;;;4.82;1.33;;;;;;;17.38;53.71;102316.06;7382360;19;20074;-65
2022/08/06 01:52:35;;;;;;;3.33;1.50;;;;;;;17.39;53.68;102329.22;7387546;19;20416;-65
2022/08/06 01:55:10;;;;;;;3.58;1.80;;;;;;;17.35;53.58;102309.25;7386613;19;20011;-66
2022/08/06 01:57:43;;;;;;;4.40;2.00;;;;;;;17.29;54.00;102314.38;7385085;19;20311;-65
2022/08/06 02:00:33;;;;;;;4.35;1.60;;;;;;;17.23;54.23;102313.19;7384842;19;20546;-65
2022/08/06 02:03:18;;;;;;;6.13;2.25;;;;;;;17.22;54.46;102316.81;7388694;19;20445;-65
2022/08/06 02:05:51;;;;;;;6.30;1.80;;;;;;;17.20;54.52;102316.16;7382666;19;20014;-66
2022/08/06 02:08:22;;;;;;;4.85;1.83;;;;;;;17.16;54.47;102311.34;7387328;19;20040;-65
2022/08/06 02:11:09;;;;;;;6.30;2.08;;;;;;;17.16;54.64;102314.00;7386192;19;20079;-66
2022/08/06 02:13:58;;;;;;;6.45;2.08;;;;;;;17.13;54.76;102309.81;7385988;19;20046;-65
2022/08/06 02:16:32;;;;;;;5.82;2.40;;;;;;;17.14;54.66;102319.47;7386075;19;20348;-66
2022/08/06 02:19:03;;;;;;;4.43;2.20;;;;;;;17.14;54.72;102311.47;7381226;19;20014;-66
2022/08/06 02:21:43;;;;;;;5.72;2.30;;;;;;;17.08;54.91;102317.44;7385890;19;20086;-66
2022/08/06 02:24:19;;;;;;;6.32;2.30;;;;;;;17.00;55.17;102315.56;7386967;19;20015;-64
2022/08/06 02:26:51;;;;;;;4.60;2.35;;;;;;;17.00;54.97;102320.06;7388207;19;20035;-65
2022/08/06 02:29:20;;;;;;;6.40;2.72;;;;;;;17.01;55.11;102317.25;7386409;19;20011;-66
2022/08/06 02:31:51;;;;;;;6.25;2.40;;;;;;;16.99;55.24;102324.53;7387484;19;20049;-65
2022/08/06 02:34:20;;;;;;;8.13;2.72;;;;;;;16.94;55.28;102320.69;7382363;19;20018;-66
2022/08/06 02:37:17;;;;;;;6.63;2.83;;;;;;;16.92;55.59;102320.84;7386116;19;20420;-66
2022/08/06 02:40:22;;;;;;;7.57;3.33;;;;;;;16.88;55.77;102318.66;7385584;19;20010;-64
2022/08/06 02:43:01;;;;;;;7.43;3.17;;;;;;;16.88;55.59;102316.81;7386986;19;20025;-66
2022/08/06 02:45:42;;;;;;;5.15;3.03;;;;;;;16.92;55.71;102318.16;7383727;19;20057;-64
2022/08/06 02:48:36;;;;;;;7.90;3.40;;;;;;;16.92;55.71;102320.00;7386310;19;20014;-66
2022/08/06 02:51:21;;;;;;;9.70;3.90;;;;;;;16.89;56.07;102322.97;7385358;19;20018;-66
2022/08/06 02:54:18;;;;;;;7.57;3.70;;;;;;;16.84;56.19;102322.63;7386310;19;20070;-66
2022/08/06 02:56:54;;;;;;;6.43;3.50;;;;;;;16.81;56.00;102320.28;7385743;19;20018;-66
2022/08/06 02:59:28;;;;;;;11.60;3.80;;;;;;;16.75;56.21;102329.72;7383724;19;20041;-66
2022/08/06 03:02:07;;;;;;;10.88;4.35;;;;;;;16.73;56.48;102331.69;7385852;19;20045;-66
2022/08/06 03:04:43;;;;;;;8.90;4.28;;;;;;;16.72;56.37;102335.31;7382655;19;20022;-65
2022/08/06 03:07:52;;;;;;;8.45;3.85;;;;;;;16.67;56.81;102327.81;7384680;19;20018;-67
2022/08/06 03:10:32;;;;;;;7.10;3.08;;;;;;;16.67;56.65;102330.47;7383638;19;20014;-65
2022/08/06 03:13:04;;;;;;;7.72;3.97;;;;;;;16.66;56.71;102326.16;7384816;19;20017;-67
2022/08/06 03:15:37;;;;;;;8.95;3.47;;;;;;;16.64;56.85;102329.97;7384456;19;20548;-66
2022/08/06 03:18:26;;;;;;;10.30;3.92;;;;;;;16.59;57.04;102335.75;7385884;19;20014;-66
2022/08/06 03:20:56;;;;;;;8.65;3.95;;;;;;;16.60;56.90;102331.28;7382180;19;20020;-66
2022/08/06 03:23:24;;;;;;;6.32;3.40;;;;;;;16.60;57.01;102332.09;7386751;19;20019;-65
2022/08/06 03:25:54;;;;;;;9.50;4.00;;;;;;;16.57;57.05;102326.22;7383741;19;20073;-67
2022/08/06 03:28:22;;;;;;;8.38;3.70;;;;;;;16.53;57.09;102333.66;7383039;19;20489;-64
2022/08/06 03:30:50;;;;;;;13.25;4.78;;;;;;;16.52;57.25;102325.84;7384168;19;20040;-65
2022/08/06 03:33:22;;;;;;;6.95;3.90;;;;;;;16.53;59.08;102324.84;7376561;19;20600;-65
2022/08/06 03:36:10;;;;;;;7.88;3.67;;;;;;;16.53;57.66;102330.16;7383949;19;20010;-66
2022/08/06 03:38:49;;;;;;;8.35;4.07;;;;;;;16.55;57.44;102339.69;7383520;19;20024;-65
2022/08/06 03:41:30;;;;;;;9.05;4.03;;;;;;;16.58;57.23;102339.38;7384965;19;20022;-65
2022/08/06 03:44:06;;;;;;;9.82;3.80;;;;;;;16.53;57.41;102346.94;7384705;19;20014;-66
2022/08/06 03:46:53;;;;;;;8.60;3.47;;;;;;;16.48;57.66;102335.94;7385737;19;20442;-65
2022/08/06 03:49:37;;;;;;;9.27;4.22;;;;;;;16.45;57.97;102346.91;7381116;19;20039;-65
2022/08/06 03:52:10;;;;;;;13.18;3.97;;;;;;;16.43;58.01;102348.88;7385763;19;20372;-66
2022/08/06 03:54:51;;;;;;;11.07;4.22;;;;;;;16.42;57.94;102347.19;7384696;19;20390;-65
2022/08/06 03:57:23;;;;;;;10.30;4.43;;;;;;;16.38;58.38;102343.19;7383975;19;20014;-66
2022/08/06 04:00:00;;;;;;;10.75;3.97;;;;;;;16.35;58.30;102343.50;7382438;19;20093;-66
2022/08/06 04:02:37;;;;;;;8.95;4.28;;;;;;;16.30;58.60;102340.47;7383765;19;20443;-65
2022/08/06 04:05:16;;;;;;;9.63;4.43;;;;;;;16.24;58.87;102352.53;7382371;19;20275;-66
2022/08/06 04:07:50;;;;;;;7.45;3.60;;;;;;;16.19;59.19;102340.69;7383330;19;20017;-65
2022/08/06 04:10:24;;;;;;;8.68;4.18;;;;;;;16.16;59.53;102347.13;7383200;19;20414;-66
2022/08/06 04:13:04;;;;;;;10.63;4.78;;;;;;;16.14;59.60;102353.59;7382148;19;20018;-65
2022/08/06 04:15:53;;;;;;;9.48;4.10;;;;;;;16.14;59.71;102350.94;7381318;19;20011;-65
2022/08/06 04:18:28;;;;;;;7.70;4.40;;;;;;;16.10;59.80;102338.94;7382979;19;20445;-65
2022/08/06 04:20:59;;;;;;;9.77;4.80;;;;;;;16.07;60.05;102342.72;7382099;19;20536;-66
2022/08/06 04:23:46;;;;;;;9.73;4.15;;;;;;;16.07;60.05;102352.50;7382207;19;20028;-65
2022/08/06 04:26:17;;;;;;;8.13;3.88;;;;;;;16.09;60.36;102342.59;7384541;19;20007;-64
2022/08/06 04:28:47;;;;;;;8.07;4.25;;;;;;;16.10;60.10;102352.22;7382855;19;20555;-66
2022/08/06 04:31:29;;;;;;;7.90;4.50;;;;;;;16.12;60.29;102352.88;7384153;19;20389;-65
2022/08/06 04:34:22;;;;;;;10.52;4.45;;;;;;;16.11;60.41;102353.88;7379045;19;20010;-65
2022/08/06 04:36:55;;;;;;;7.78;4.40;;;;;;;16.11;60.26;102356.53;7382303;19;20018;-66
2022/08/06 04:39:23;;;;;;;12.40;5.30;;;;;;;16.11;61.33;102356.53;7382907;19;20014;-66
2022/08/06 04:42:06;;;;;;;10.88;5.47;;;;;;;16.12;60.65;102352.88;7382213;19;20074;-65
2022/08/06 04:44:35;;;;;;;12.13;4.75;;;;;;;16.12;60.49;102355.53;7383848;19;20011;-64
2022/08/06 04:47:11;;;;;;;8.60;4.60;;;;;;;16.13;60.68;102357.22;7389537;19;20015;-66
2022/08/06 04:49:40;;;;;;;11.43;5.18;;;;;;;16.12;60.82;102360.84;7386561;19;20022;-66
2022/08/06 04:52:28;;;;;;;8.13;4.70;;;;;;;16.13;60.84;102357.22;7389178;19;20551;-66
2022/08/06 04:55:14;;;;;;;11.57;4.78;;;;;;;16.14;60.95;102358.91;7385043;19;20014;-66
2022/08/06 04:57:53;;;;;;;8.90;4.45;;;;;;;16.16;61.43;102367.53;7385104;19;20029;-66
2022/08/06 05:00:34;;;;;;;11.38;4.65;;;;;;;16.12;60.92;102356.38;7387449;19;20046;-66
2022/08/06 05:03:20;;;;;;;7.97;4.40;;;;;;;16.13;61.25;102357.22;7387154;19;20041;-67
2022/08/06 05:06:42;;;;;;;8.35;4.32;;;;;;;16.18;61.20;102357.59;7389894;19;20045;-66
2022/08/06 05:09:22;;;;;;;9.98;4.45;;;;;;;16.19;61.01;102368.09;7384671;19;20026;-67
2022/08/06 05:12:39;;;;;;;8.45;4.43;;;;;;;16.20;61.37;102369.72;7385565;19;20758;-64
2022/08/06 05:15:23;;;;;;;17.48;5.43;;;;;;;16.25;61.33;102366.66;7386370;19;20017;-66
2022/08/06 05:18:26;;;;;;;10.82;4.20;;;;;;;16.23;60.97;102373.91;7387974;19;20357;-67
2022/08/06 05:21:23;;;;;;;16.50;5.15;;;;;;;16.22;61.37;102386.38;7385805;19;20014;-66
2022/08/06 05:24:11;;;;;;;12.30;5.00;;;;;;;16.21;61.38;102389.16;7384219;19;20010;-65
2022/08/06 05:26:41;;;;;;;10.77;4.60;;;;;;;16.22;61.43;102385.53;7387799;19;20010;-65
2022/08/06 05:29:08;;;;;;;8.15;4.85;;;;;;;16.23;61.92;102389.84;7386340;19;20584;-65
2022/08/06 05:31:39;;;;;;;10.73;4.80;;;;;;;16.21;62.02;102390.00;7387807;19;20501;-65
2022/08/06 05:34:12;;;;;;;11.15;4.28;;;;;;;16.16;61.63;102391.44;7382293;19;20031;-66
2022/08/06 05:36:40;;;;;;;8.38;4.00;;;;;;;16.12;61.92;102396.22;7386252;19;21064;-66
2022/08/06 05:39:09;;;;;;;8.80;4.63;;;;;;;16.14;62.00;102398.75;7386092;19;20015;-65
2022/08/06 05:41:56;;;;;;;9.70;4.10;;;;;;;16.12;61.91;102396.22;7387105;19;20295;-65
2022/08/06 05:44:26;;;;;;;7.68;3.97;;;;;;;16.09;62.10;102398.34;7386021;19;20081;-65
2022/08/06 05:47:02;;;;;;;10.50;4.32;;;;;;;16.09;62.22;102403.66;7388258;19;20019;-69
2022/08/06 05:49:47;;;;;;;7.47;3.75;;;;;;;16.07;62.32;102402.97;7386139;19;20394;-65
2022/08/06 05:52:58;;;;;;;6.85;3.70;;;;;;;16.05;62.67;102413.72;7387326;19;20105;-64
2022/08/06 05:55:34;;;;;;;9.60;4.60;;;;;;;16.08;62.61;102420.56;7386196;19;20025;-66
2022/08/06 05:58:10;;;;;;;8.98;3.97;;;;;;;16.01;62.36;102420.31;7384958;19;20018;-65
2022/08/06 06:00:40;;;;;;;8.65;3.85;;;;;;;16.03;62.93;102428.16;7386402;19;20014;-65
2022/08/06 06:03:13;;;;;;;9.70;4.22;;;;;;;16.04;63.21;102429.84;7386720;19;20473;-64
2022/08/06 06:05:53;;;;;;;9.55;4.25;;;;;;;15.99;63.18;102424.97;7385768;19;20279;-64
2022/08/06 06:08:41;;;;;;;14.10;5.80;;;;;;;16.02;62.94;102422.00;7385161;19;20034;-65
2022/08/06 06:11:27;;;;;;;9.98;3.88;;;;;;;16.01;63.48;102424.78;7387153;19;20018;-65
2022/08/06 06:14:36;;;;;;;8.52;3.97;;;;;;;16.00;63.53;102433.78;7386307;19;20053;-65
2022/08/06 06:17:26;;;;;;;12.43;3.50;;;;;;;16.01;63.50;102436.25;7387754;19;20030;-64
2022/08/06 06:20:23;;;;;;;9.30;3.95;;;;;;;16.04;63.97;102429.84;7384597;19;20010;-65
2022/08/06 06:23:23;;;;;;;10.60;4.35;;;;;;;16.06;63.69;102425.19;7387450;19;20482;-65
2022/08/06 06:26:15;;;;;;;8.32;4.00;;;;;;;16.11;63.72;102426.41;7386821;19;20390;-65
2022/08/06 06:29:28;;;;;;;10.88;4.22;;;;;;;16.19;63.45;102436.31;7388407;19;20014;-65
2022/08/06 06:32:28;;;;;;;9.70;4.35;;;;;;;16.23;63.11;102433.19;7386925;19;20010;-64
2022/08/06 06:34:59;;;;;;;9.50;4.40;;;;;;;16.27;63.19;102431.91;7383739;19;20449;-65
2022/08/06 06:37:30;;;;;;;9.07;4.50;;;;;;;16.31;63.23;102435.09;7381229;19;20472;-66
2022/08/06 06:40:35;;;;;;;6.72;4.15;;;;;;;16.41;63.17;102429.69;7386170;19;20018;-66
2022/08/06 06:43:25;;;;;;;16.98;6.50;;;;;;;16.46;62.93;102432.75;7385461;19;20455;-65
2022/08/06 06:46:28;;;;;;;8.70;5.13;;;;;;;16.52;62.88;102430.31;7386509;19;20047;-65
2022/08/06 06:49:32;;;;;;;15.95;4.10;;;;;;;16.60;62.57;102435.75;7384589;19;20392;-65
2022/08/06 06:52:31;;;;;;;9.00;4.57;;;;;;;16.63;62.73;102437.25;7387831;19;20006;-65
2022/08/06 06:55:12;;;;;;;11.82;4.72;;;;;;;16.65;62.60;102436.13;7385258;19;20744;-65
2022/08/06 06:57:50;;;;;;;10.70;4.65;;;;;;;16.68;62.74;102438.47;7385968;19;20010;-65
2022/08/06 07:00:18;;;;;;;9.55;4.45;;;;;;;16.76;62.94;102443.00;7385007;19;20030;-65
2022/08/06 07:03:07;;;;;;;10.73;4.45;;;;;;;16.81;62.30;102445.25;7383310;19;20022;-65
2022/08/06 07:05:38;;;;;;;11.88;4.57;;;;;;;16.85;62.45;102449.25;7379872;19;20048;-65
2022/08/06 07:08:28;;;;;;;8.30;4.72;;;;;;;16.92;63.97;102442.31;7385999;19;20010;-65
2022/08/06 07:10:59;;;;;;;8.55;5.05;;;;;;;16.98;63.11;102441.72;7383886;19;20389;-65
2022/08/06 07:13:32;;;;;;;8.18;4.68;;;;;;;17.02;62.41;102445.72;7387019;19;20040;-64
2022/08/06 07:16:19;;;;;;;12.82;5.00;;;;;;;17.06;61.92;102439.13;7386143;19;20035;-65
2022/08/06 07:19:04;;;;;;;10.35;4.75;;;;;;;17.09;61.66;102446.78;7380303;19;20010;-65
2022/08/06 07:21:38;;;;;;;9.60;4.88;;;;;;;17.12;62.09;102445.66;7386328;19;20371;-65
2022/08/06 07:24:10;;;;;;;13.60;5.07;;;;;;;17.15;62.62;102450.66;7386004;19;20029;-64
2022/08/06 07:27:00;;;;;;;14.25;5.93;;;;;;;17.21;61.91;102450.88;7386378;19;20553;-65
2022/08/06 07:29:29;;;;;;;12.10;5.63;;;;;;;17.29;61.32;102453.56;7384259;19;20080;-65
2022/08/06 07:32:16;;;;;;;11.18;5.20;;;;;;;17.35;61.11;102452.94;7385065;19;20015;-63
2022/08/06 07:34:59;;;;;;;;;;;;;;;17.39;60.46;102450.81;7384634;19;20097;-65
2022/08/06 07:37:28;;;;;;;11.55;4.75;;;;;;;17.38;60.37;102457.09;7383165;19;19986;-64
2022/08/06 07:40:06;;;;;;;10.85;4.40;;;;;;;17.39;61.50;102459.63;7385455;19;20037;-64
2022/08/06 07:42:37;;;;;;;9.75;4.55;;;;;;;17.41;60.26;102462.13;7386472;19;20023;-64
2022/08/06 07:45:08;;;;;;;9.25;4.55;;;;;;;17.43;60.23;102457.47;7384527;19;20015;-65
2022/08/06 07:47:42;;;;;;;8.68;4.97;;;;;;;17.47;60.48;102453.53;7384613;19;20351;-65
2022/08/06 07:50:23;;;;;;;12.75;5.03;;;;;;;17.56;60.50;102465.06;7383425;19;20443;-65
2022/08/06 07:52:54;;;;;;;13.43;5.22;;;;;;;17.66;60.45;102460.47;7384635;19;20010;-66
2022/08/06 07:55:26;;;;;;;9.50;5.75;;;;;;;17.80;59.62;102465.19;7383949;19;20097;-68
2022/08/06 07:58:07;;;;;;;12.68;5.40;;;;;;;17.87;58.11;102468.91;7385574;19;20019;-66
2022/08/06 08:00:36;;;;;;;9.98;5.65;;;;;;;17.92;58.07;102464.78;7385120;19;20074;-66
2022/08/06 08:06:23;;;;;;;14.13;5.90;;;;;;;18.08;57.37;102466.63;7384746;19;20018;-64
2022/08/06 08:09:01;;;;;;;11.38;5.38;;;;;;;18.19;57.01;102465.50;7381818;19;20121;-64
2022/08/06 08:11:31;;;;;;;11.93;4.95;;;;;;;18.16;57.01;102461.34;7386139;19;20014;-65
2022/08/06 08:14:20;;;;;;;8.10;4.85;;;;;;;18.15;58.91;102459.69;7383741;19;20428;-66
2022/08/06 08:16:48;;;;;;;13.30;5.30;;;;;;;18.15;57.84;102464.16;7383209;19;20394;-65
2022/08/06 08:19:30;;;;;;;9.75;4.65;;;;;;;18.17;57.35;102468.34;7382497;19;20751;-65
2022/08/06 08:22:11;;;;;;;10.20;4.72;;;;;;;18.21;57.14;102464.34;7391729;19;20014;-66
2022/08/06 08:24:40;;;;;;;11.18;4.95;;;;;;;18.27;56.39;102462.88;7389791;19;20774;-64
2022/08/06 08:27:21;;;;;;;11.45;4.82;;;;;;;18.27;56.34;102458.38;7391979;19;20017;-65
2022/08/06 08:30:03;;;;;;;8.88;5.07;;;;;;;18.29;56.17;102464.38;7388634;19;20143;-65
2022/08/06 08:32:30;;;;;;;10.93;4.78;;;;;;;18.31;55.99;102465.06;7392089;19;20025;-65
2022/08/06 08:34:57;;;;;;;11.32;4.47;;;;;;;18.35;56.10;102468.22;7387561;19;20451;-65
2022/08/06 08:37:26;;;;;;;9.30;4.40;;;;;;;18.41;55.93;102461.41;7387037;19;20021;-64
2022/08/06 08:39:58;;;;;;;18.55;4.78;;;;;;;18.44;55.66;102461.09;7389012;19;20515;-64
2022/08/06 08:42:40;;;;;;;9.90;4.30;;;;;;;18.47;55.52;102458.94;7391043;19;20554;-64
2022/08/06 08:45:08;;;;;;;8.77;4.40;;;;;;;18.51;55.63;102456.75;7388591;19;20018;-65
2022/08/06 08:47:46;;;;;;;10.90;4.80;;;;;;;18.54;56.12;102459.94;7389132;19;20015;-65
2022/08/06 08:50:27;;;;;;;11.27;5.05;;;;;;;18.59;55.32;102459.47;7386143;19;20022;-66
2022/08/06 08:53:09;;;;;;;9.68;5.07;;;;;;;18.67;54.63;102459.47;7391263;19;20038;-66
2022/08/06 08:55:36;;;;;;;11.45;4.78;;;;;;;18.69;54.17;102455.63;7389135;19;20015;-63
2022/08/06 08:58:23;;;;;;;11.90;4.28;;;;;;;18.72;52.64;102457.97;7388868;19;20014;-64
2022/08/06 09:01:08;;;;;;;10.00;4.22;;;;;;;18.78;52.22;102457.31;7389130;19;20021;-67
2022/08/06 09:03:56;;;;;;;9.43;3.42;;;;;;;18.88;50.47;102454.50;7386096;19;20025;-65
2022/08/06 09:06:24;;;;;;;6.82;3.20;;;;;;;18.95;49.03;102457.31;7388970;19;20022;-65
2022/08/06 09:09:02;;;;;;;5.97;2.38;;;;;;;18.96;48.10;102456.31;7386928;19;20017;-65
2022/08/06 09:11:32;;;;;;;6.40;3.10;;;;;;;18.99;48.66;102453.31;7390066;19;20010;-65
2022/08/06 09:14:20;;;;;;;8.93;2.72;;;;;;;19.07;49.03;102451.47;7389638;19;20481;-62
2022/08/06 09:16:54;;;;;;;3.92;2.10;;;;;;;19.19;48.93;102455.47;7389831;19;20604;-63
2022/08/06 09:19:21;;;;;;;9.57;3.22;;;;;;;19.28;49.37;102460.78;7383415;19;20031;-64
2022/08/06 09:21:56;;;;;;;9.50;3.40;;;;;;;19.38;49.51;102454.25;7388979;19;20098;-64
2022/08/06 09:24:24;;;;;;;6.38;3.05;;;;;;;19.53;48.54;102454.41;7388658;19;20029;-63
2022/08/06 09:27:08;;;;;;;4.55;2.30;;;;;;;19.63;46.95;102455.06;7388576;19;20033;-62
2022/08/06 09:29:58;;;;;;;5.45;2.85;;;;;;;19.75;45.75;102453.69;7389024;19;20030;-62
2022/08/06 09:32:46;;;;;;;3.23;2.07;;;;;;;19.83;46.37;102460.81;7388661;19;20076;-62
2022/08/06 09:35:24;;;;;;;6.90;2.90;;;;;;;19.83;46.09;102453.66;7385654;19;20077;-63
2022/08/06 09:38:12;;;;;;;5.30;2.53;;;;;;;19.83;46.52;102460.81;7384965;19;20475;-63
2022/08/06 09:41:04;;;;;;;4.93;2.27;;;;;;;19.88;46.44;102456.63;7387572;19;20014;-64
2022/08/06 09:43:32;;;;;;;7.28;2.58;;;;;;;19.97;45.65;102460.09;7386990;19;20060;-63
2022/08/06 09:47:07;;;;;;;4.72;2.30;;;;;;;20.05;46.31;102462.75;7392972;19;20015;-63
2022/08/06 09:49:57;;;;;;;5.25;2.22;;;;;;;20.15;46.22;102465.19;7383180;19;20051;-63
2022/08/06 09:52:26;;;;;;;4.55;2.25;;;;;;;20.24;45.79;102456.13;7388913;19;20494;-64
2022/08/06 09:54:53;;;;;;;5.43;2.03;;;;;;;20.34;45.27;102460.25;7384847;19;20070;-64
2022/08/06 09:57:27;;;;;;;6.20;2.40;;;;;;;20.46;44.49;102463.38;7387877;19;20490;-64
2022/08/06 10:00:05;;;;;;;6.22;2.08;;;;;;;20.55;44.75;102464.97;7385860;19;20020;-63
2022/08/06 10:02:41;;;;;;;11.98;2.70;;;;;;;20.61;44.79;102460.75;7387103;19;20347;-63
2022/08/06 10:05:18;;;;;;;4.68;2.47;;;;;;;20.74;44.05;102460.97;7384391;19;20046;-63
2022/08/06 10:08:00;;;;;;;6.60;2.92;;;;;;;20.76;44.44;102461.66;7388394;19;20025;-62
2022/08/06 10:10:44;;;;;;;4.65;2.50;;;;;;;20.77;44.52;102458.81;7386802;19;20077;-63
2022/08/06 10:13:27;;;;;;;4.07;2.20;;;;;;;20.84;44.17;102465.09;7387901;19;20543;-63
2022/08/06 10:16:29;;;;;;;4.75;2.10;;;;;;;20.91;43.52;102468.72;7387193;19;20022;-63
2022/08/06 10:18:59;;;;;;;8.18;1.83;;;;;;;21.00;43.07;102457.91;7382392;19;20042;-64
2022/08/06 10:21:44;;;;;;;3.05;1.60;;;;;;;21.06;42.65;102467.91;7387073;19;20010;-64
2022/08/06 10:24:15;;;;;;;4.72;1.75;;;;;;;21.12;41.77;102464.50;7386683;19;20014;-62
2022/08/06 10:27:06;;;;;;;3.97;1.55;;;;;;;21.08;42.34;102455.19;7387642;19;20025;-63
2022/08/06 10:30:00;;;;;;;5.15;1.73;;;;;;;21.10;42.12;102461.19;7385630;19;20014;-62
2022/08/06 10:32:49;;;;;;;4.30;1.60;;;;;;;21.12;42.52;102457.31;7384808;19;20007;-61
2022/08/06 10:35:18;;;;;;;4.47;2.00;;;;;;;21.16;43.39;102453.28;7383734;19;20074;-62
2022/08/06 10:38:01;;;;;;;3.85;1.70;;;;;;;21.21;42.90;102453.56;7383338;19;20018;-62
2022/08/06 10:40:30;;;;;;;5.32;2.25;;;;;;;21.24;43.13;102447.00;7385175;19;20040;-64
2022/08/06 10:43:03;;;;;;;6.32;2.47;;;;;;;21.23;42.07;102453.41;7385539;19;20014;-66
2022/08/06 10:45:33;;;;;;;5.00;2.17;;;;;;;21.18;42.21;102450.44;7384939;19;20010;-66
2022/08/06 10:48:16;;;;;;;2.92;1.65;;;;;;;21.13;41.53;102452.78;7386226;19;20530;-66
2022/08/06 10:51:05;;;;;;;3.45;1.90;;;;;;;21.06;42.18;102462.56;7384863;19;20021;-66
2022/08/06 10:53:34;;;;;;;3.20;1.77;;;;;;;21.04;42.64;102453.88;7386180;19;20078;-67
2022/08/06 10:56:23;;;;;;;10.43;2.10;;;;;;;21.01;42.17;102452.41;7385662;19;20014;-66
2022/08/06 10:58:59;;;;;;;4.82;1.88;;;;;;;21.03;41.23;102442.31;7384209;19;20010;-66
2022/08/06 11:01:51;;;;;;;4.03;1.85;;;;;;;21.13;41.10;102442.09;7386850;19;20033;-66
2022/08/06 11:04:47;;;;;;;3.70;1.60;;;;;;;21.13;41.13;102436.72;7383214;19;20394;-65
2022/08/06 11:07:41;;;;;;;4.82;2.28;;;;;;;21.18;42.21;102443.22;7385344;19;20070;-66
2022/08/06 11:11:05;;;;;;;4.68;2.00;;;;;;;21.27;41.63;102441.31;7384867;19;20034;-66
2022/08/06 11:13:51;;;;;;;4.50;2.03;;;;;;;21.27;41.43;102433.25;7382031;19;20520;-67
2022/08/06 11:16:26;;;;;;;4.53;1.95;;;;;;;21.24;42.19;102433.63;7384976;19;20397;-66
2022/08/06 11:19:13;;;;;;;5.63;2.25;;;;;;;21.28;42.99;102424.22;7382041;19;20350;-66
2022/08/06 11:21:43;;;;;;;3.42;2.10;;;;;;;21.33;42.62;102419.16;7383057;19;20093;-65
2022/08/06 11:24:29;;;;;;;4.15;1.92;;;;;;;21.40;42.32;102430.75;7381944;19;20011;-68
2022/08/06 11:27:03;;;;;;;10.05;2.90;;;;;;;21.45;42.27;102436.41;7384872;19;20015;-67
2022/08/06 11:30:09;;;;;;;6.32;1.90;;;;;;;21.51;41.73;102424.13;7382885;19;20011;-67
2022/08/06 11:32:50;;;;;;;9.40;2.40;;;;;;;21.60;40.84;102439.91;7384217;19;20335;-67
2022/08/06 11:35:34;;;;;;;4.65;1.60;;;;;;;21.68;40.53;102437.16;7380674;19;20010;-66
2022/08/06 11:38:04;;;;;;;3.53;2.00;;;;;;;21.69;40.95;102429.91;7381838;19;20028;-65
2022/08/06 11:40:54;;;;;;;4.68;1.65;;;;;;;21.68;41.69;102428.28;7381439;19;20009;-62
2022/08/06 11:43:40;;;;;;;4.70;1.80;;;;;;;21.72;41.83;102432.25;7382653;19;20014;-61
2022/08/06 11:46:30;;;;;;;4.75;1.88;;;;;;;21.74;41.40;102428.34;7383810;19;20018;-62
2022/08/06 11:49:06;;;;;;;2.42;1.63;;;;;;;21.81;41.48;102424.91;7381398;19;20019;-60
2022/08/06 11:51:45;;;;;;;3.72;1.70;;;;;;;21.86;40.40;102422.50;7380660;19;20011;-64
2022/08/06 11:54:36;;;;;;;2.60;1.58;;;;;;;21.89;39.98;102417.59;7378636;19;20019;-62
2022/08/06 11:57:07;;;;;;;6.05;2.05;;;;;;;21.97;39.11;102424.75;7381664;19;20018;-65
2022/08/06 11:59:53;;;;;;;3.08;1.60;;;;;;;21.92;39.66;102417.22;7379858;19;20030;-65
2022/08/06 12:02:40;;;;;;;4.50;1.90;;;;;;;21.87;39.72;102422.31;7380144;19;20047;-65
2022/08/06 12:05:13;;;;;;;6.43;2.15;;;;;;;21.80;39.84;102418.72;7380034;19;20361;-62
2022/08/06 12:07:46;;;;;;;8.55;2.10;;;;;;;21.75;39.45;102407.72;7384200;19;20014;-62
2022/08/06 12:10:18;;;;;;;4.80;1.80;;;;;;;21.80;39.55;102407.16;7382558;19;20031;-62
2022/08/06 12:12:55;;;;;;;5.38;2.10;;;;;;;21.85;39.91;102415.47;7384957;19;20014;-63
2022/08/06 12:15:26;;;;;;;3.25;1.63;;;;;;;21.89;39.22;102408.75;7383387;19;20021;-63
2022/08/06 12:18:13;;;;;;;4.47;1.73;;;;;;;21.97;38.57;102405.97;7382742;19;20017;-62
2022/08/06 12:20:49;;;;;;;3.50;1.77;;;;;;;22.02;38.83;102401.72;7380624;19;20011;-62
2022/08/06 12:23:22;;;;;;;4.65;1.95;;;;;;;22.09;37.94;102408.00;7384957;19;20025;-61
2022/08/06 12:26:10;;;;;;;5.13;1.80;;;;;;;22.10;38.28;102398.06;7384945;19;20109;-63
2022/08/06 12:28:38;;;;;;;6.88;3.88;;;;;;;22.12;38.72;102396.88;7382894;19;20371;-61
2022/08/06 12:31:05;;;;;;;3.33;1.55;;;;;;;22.21;37.18;102394.06;7381809;19;20070;-61